Terminal Aerodrome Forecast
Issued by NWS Sioux Falls, SD

Home | Current Version | Previous Version | Text Only | Print | Product List | Glossary On
Versions: 1 2 3 4 5 6 7 8 9 10 11 12 13 14 15 16 17 18 19 20 21 22 23 24 25 26 27 28 29 30 31 32 33 34 35 36 37 38 39 40 41 42 43
043
FTUS43 KFSD 271630 AAB
TAFSUX
TAF AMD
KSUX 271630Z 2717/2812 10018G25KT P6SM -RA OVC010
     FM272100 08017G25KT P6SM OVC010
     FM280000 08015G22KT 5SM SHRA OVC010
     FM280600 04010KT P6SM OVC010=

USA.gov is the U.S. government's official web portal to all federal, state and local government web resources and services.